sensor_id;sensor_type;location;lat;lon;timestamp;pressure;altitude;pressure_sealevel;temperature;humidity
48563;BME280;34981;49.104;11.396;2023-04-01T00:01:05;98400.84;;;6.10;100.00
48563;BME280;34981;49.104;11.396;2023-04-01T00:03:33;98400.50;;;6.13;100.00
48563;BME280;34981;49.104;11.396;2023-04-01T00:06:00;98391.19;;;6.09;100.00
48563;BME280;34981;49.104;11.396;2023-04-01T00:08:28;98396.78;;;6.14;100.00
48563;BME280;34981;49.104;11.396;2023-04-01T00:10:55;98400.28;;;6.15;100.00
48563;BME280;34981;49.104;11.396;2023-04-01T00:13:24;98394.13;;;6.14;100.00
48563;BME280;34981;49.104;11.396;2023-04-01T00:15:53;98394.94;;;6.15;100.00
48563;BME280;34981;49.104;11.396;2023-04-01T00:18:20;98393.50;;;6.12;100.00
48563;BME280;34981;49.104;11.396;2023-04-01T00:20:48;98394.13;;;6.14;100.00
48563;BME280;34981;49.104;11.396;2023-04-01T00:23:16;98392.84;;;6.10;100.00
48563;BME280;34981;49.104;11.396;2023-04-01T00:25:44;98393.66;;;6.11;100.00
48563;BME280;34981;49.104;11.396;2023-04-01T00:28:12;98401.69;;;6.11;100.00
48563;BME280;34981;49.104;11.396;2023-04-01T00:30:39;98394.22;;;6.06;100.00
48563;BME280;34981;49.104;11.396;2023-04-01T00:33:06;98395.84;;;6.07;100.00
48563;BME280;34981;49.104;11.396;2023-04-01T00:35:33;98400.38;;;6.07;100.00
48563;BME280;34981;49.104;11.396;2023-04-01T00:38:01;98391.06;;;6.03;100.00
48563;BME280;34981;49.104;11.396;2023-04-01T00:40:30;98392.75;;;6.04;100.00
48563;BME280;34981;49.104;11.396;2023-04-01T00:42:57;98395.22;;;6.05;100.00
48563;BME280;34981;49.104;11.396;2023-04-01T00:45:36;98399.75;;;6.05;100.00
48563;BME280;34981;49.104;11.396;2023-04-01T00:48:07;98393.19;;;6.07;100.00
48563;BME280;34981;49.104;11.396;2023-04-01T00:50:35;98387.91;;;5.99;100.00
48563;BME280;34981;49.104;11.396;2023-04-01T00:53:03;98390.59;;;5.99;100.00
48563;BME280;34981;49.104;11.396;2023-04-01T00:55:33;98393.56;;;6.04;100.00
48563;BME280;34981;49.104;11.396;2023-04-01T00:58:03;98388.88;;;6.06;100.00
48563;BME280;34981;49.104;11.396;2023-04-01T01:00:32;98383.72;;;6.05;100.00
48563;BME280;34981;49.104;11.396;2023-04-01T01:03:00;98390.72;;;6.06;100.00
48563;BME280;34981;49.104;11.396;2023-04-01T01:05:32;98377.72;;;6.03;100.00
48563;BME280;34981;49.104;11.396;2023-04-01T01:08:23;98377.53;;;6.04;100.00
48563;BME280;34981;49.104;11.396;2023-04-01T01:10:57;98373.88;;;6.05;100.00
48563;BME280;34981;49.104;11.396;2023-04-01T01:13:32;98377.91;;;6.01;100.00
48563;BME280;34981;49.104;11.396;2023-04-01T01:16:06;98373.88;;;6.05;100.00
48563;BME280;34981;49.104;11.396;2023-04-01T01:29:08;98377.91;;;6.01;100.00
48563;BME280;34981;49.104;11.396;2023-04-01T01:36:39;98363.88;;;5.99;100.00
48563;BME280;34981;49.104;11.396;2023-04-01T01:39:09;98373.03;;;6.05;100.00
48563;BME280;34981;49.104;11.396;2023-04-01T01:41:37;98369.38;;;6.06;100.00
48563;BME280;34981;49.104;11.396;2023-04-01T01:44:06;98362.53;;;6.03;100.00
48563;BME280;34981;49.104;11.396;2023-04-01T01:46:34;98355.88;;;5.99;100.00
48563;BME280;34981;49.104;11.396;2023-04-01T01:49:02;98347.88;;;5.99;100.00
48563;BME280;34981;49.104;11.396;2023-04-01T01:51:30;98347.53;;;6.02;100.00
48563;BME280;34981;49.104;11.396;2023-04-01T01:53:58;98357.84;;;6.05;100.00
48563;BME280;34981;49.104;11.396;2023-04-01T01:56:26;98360.03;;;6.02;100.00
48563;BME280;34981;49.104;11.396;2023-04-01T01:59:05;98348.69;;;6.00;100.00
48563;BME280;34981;49.104;11.396;2023-04-01T02:01:35;98343.66;;;6.05;100.00
48563;BME280;34981;49.104;11.396;2023-04-01T02:04:10;98346.88;;;6.00;100.00
48563;BME280;34981;49.104;11.396;2023-04-01T02:06:39;98350.84;;;6.04;100.00
48563;BME280;34981;49.104;11.396;2023-04-01T02:09:09;98345.03;;;6.01;100.00
48563;BME280;34981;49.104;11.396;2023-04-01T02:11:40;98339.41;;;5.96;100.00
48563;BME280;34981;49.104;11.396;2023-04-01T02:14:13;98334.25;;;5.94;100.00
48563;BME280;34981;49.104;11.396;2023-04-01T02:16:47;98338.03;;;6.00;100.00
48563;BME280;34981;49.104;11.396;2023-04-01T02:19:17;98331.97;;;5.91;100.00
48563;BME280;34981;49.104;11.396;2023-04-01T02:21:50;98336.25;;;5.92;100.00
48563;BME280;34981;49.104;11.396;2023-04-01T02:24:19;98337.78;;;5.86;100.00
48563;BME280;34981;49.104;11.396;2023-04-01T02:26:50;98347.31;;;5.89;100.00
48563;BME280;34981;49.104;11.396;2023-04-01T02:29:19;98348.16;;;5.90;100.00
48563;BME280;34981;49.104;11.396;2023-04-01T02:31:47;98343.97;;;5.87;100.00
48563;BME280;34981;49.104;11.396;2023-04-01T02:34:15;98346.50;;;5.89;100.00
48563;BME280;34981;49.104;11.396;2023-04-01T02:36:43;98352.34;;;5.84;100.00
48563;BME280;34981;49.104;11.396;2023-04-01T02:39:11;98351.97;;;5.87;100.00
48563;BME280;34981;49.104;11.396;2023-04-01T02:41:40;98359.97;;;5.87;100.00
48563;BME280;34981;49.104;11.396;2023-04-01T02:44:07;98354.81;;;5.85;100.00
48563;BME280;34981;49.104;11.396;2023-04-01T02:46:35;98355.66;;;5.86;100.00
48563;BME280;34981;49.104;11.396;2023-04-01T02:49:04;98353.25;;;5.76;100.00
48563;BME280;34981;49.104;11.396;2023-04-01T02:51:31;98352.88;;;5.79;100.00
48563;BME280;34981;49.104;11.396;2023-04-01T02:53:59;98356.94;;;5.75;100.00
48563;BME280;34981;49.104;11.396;2023-04-01T02:56:26;98354.88;;;5.77;100.00
48563;BME280;34981;49.104;11.396;2023-04-01T02:58:54;98368.53;;;5.82;100.00
48563;BME280;34981;49.104;11.396;2023-04-01T03:01:21;98371.03;;;5.84;100.00
48563;BME280;34981;49.104;11.396;2023-04-01T03:03:49;98368.72;;;5.81;100.00
48563;BME280;34981;49.104;11.396;2023-04-01T03:06:16;98370.91;;;5.77;100.00
48563;BME280;34981;49.104;11.396;2023-04-01T03:08:43;98373.41;;;5.79;100.00
48563;BME280;34981;49.104;11.396;2023-04-01T03:11:10;98372.09;;;5.75;100.00
48563;BME280;34981;49.104;11.396;2023-04-01T03:13:38;98370.38;;;5.82;100.00
48563;BME280;34981;49.104;11.396;2023-04-01T03:16:05;98377.38;;;5.83;100.00
48563;BME280;34981;49.104;11.396;2023-04-01T03:18:32;98369.91;;;5.78;100.00
48563;BME280;34981;49.104;11.396;2023-04-01T03:21:22;98380.41;;;5.80;100.00
48563;BME280;34981;49.104;11.396;2023-04-01T03:23:49;98358.38;;;5.78;100.00
48563;BME280;34981;49.104;11.396;2023-04-01T03:26:17;98367.13;;;5.72;100.00
48563;BME280;34981;49.104;11.396;2023-04-01T03:28:44;98367.28;;;5.70;100.00
48563;BME280;34981;49.104;11.396;2023-04-01T03:31:11;98370.34;;;5.67;100.00
48563;BME280;34981;49.104;11.396;2023-04-01T03:33:45;98366.94;;;5.73;100.00
48563;BME280;34981;49.104;11.396;2023-04-01T03:36:12;98371.28;;;5.74;100.00
48563;BME280;34981;49.104;11.396;2023-04-01T03:38:40;98370.09;;;5.77;100.00
48563;BME280;34981;49.104;11.396;2023-04-01T03:41:11;98372.47;;;5.72;100.00
48563;BME280;34981;49.104;11.396;2023-04-01T03:43:38;98368.78;;;5.73;100.00
48563;BME280;34981;49.104;11.396;2023-04-01T03:46:06;98378.09;;;5.77;100.00
48563;BME280;34981;49.104;11.396;2023-04-01T03:48:33;98370.63;;;5.72;100.00
48563;BME280;34981;49.104;11.396;2023-04-01T03:51:00;98372.47;;;5.72;100.00
48563;BME280;34981;49.104;11.396;2023-04-01T03:53:27;98371.50;;;5.65;100.00
48563;BME280;34981;49.104;11.396;2023-04-01T03:55:58;98365.91;;;5.60;100.00
48563;BME280;34981;49.104;11.396;2023-04-01T03:58:25;98374.72;;;5.60;100.00
48563;BME280;34981;49.104;11.396;2023-04-01T04:00:53;98376.41;;;5.61;100.00
48563;BME280;34981;49.104;11.396;2023-04-01T04:03:20;98373.53;;;5.63;100.00
48563;BME280;34981;49.104;11.396;2023-04-01T04:05:47;98375.91;;;5.58;100.00
48563;BME280;34981;49.104;11.396;2023-04-01T04:08:16;98361.63;;;5.51;100.00
48563;BME280;34981;49.104;11.396;2023-04-01T04:10:44;98374.63;;;5.54;100.00
48563;BME280;34981;49.104;11.396;2023-04-01T04:13:11;98357.19;;;5.43;100.00
48563;BME280;34981;49.104;11.396;2023-04-01T04:15:45;98366.31;;;5.48;100.00
48563;BME280;34981;49.104;11.396;2023-04-01T04:18:12;98364.53;;;5.41;100.00
48563;BME280;34981;49.104;11.396;2023-04-01T04:20:43;98371.72;;;5.40;100.00
48563;BME280;34981;49.104;11.396;2023-04-01T04:23:12;98362.41;;;5.36;100.00
48563;BME280;34981;49.104;11.396;2023-04-01T04:25:40;98375.06;;;5.34;100.00
48563;BME280;34981;49.104;11.396;2023-04-01T04:28:07;98371.56;;;5.34;100.00
48563;BME280;34981;49.104;11.396;2023-04-01T04:30:34;98378.34;;;5.22;100.00
48563;BME280;34981;49.104;11.396;2023-04-01T04:33:03;98375.50;;;5.23;100.00
48563;BME280;34981;49.104;11.396;2023-04-01T04:35:30;98383.13;;;5.26;100.00
48563;BME280;34981;49.104;11.396;2023-04-01T04:37:58;98385.28;;;5.31;100.00
48563;BME280;34981;49.104;11.396;2023-04-01T04:40:25;98391.78;;;5.28;100.00
48563;BME280;34981;49.104;11.396;2023-04-01T04:42:52;98393.78;;;5.26;100.00
48563;BME280;34981;49.104;11.396;2023-04-01T04:45:19;98398.44;;;5.32;100.00
48563;BME280;34981;49.104;11.396;2023-04-01T04:47:53;98390.25;;;5.34;100.00
48563;BME280;34981;49.104;11.396;2023-04-01T04:50:20;98398.06;;;5.35;100.00
48563;BME280;34981;49.104;11.396;2023-04-01T04:52:48;98407.41;;;5.39;100.00
48563;BME280;34981;49.104;11.396;2023-04-01T04:55:15;98400.06;;;5.33;100.00
48563;BME280;34981;49.104;11.396;2023-04-01T04:57:46;98396.78;;;5.31;100.00
48563;BME280;34981;49.104;11.396;2023-04-01T05:00:13;98397.63;;;5.32;100.00
48563;BME280;34981;49.104;11.396;2023-04-01T05:02:54;98401.41;;;5.37;100.00
48563;BME280;34981;49.104;11.396;2023-04-01T05:05:21;98409.13;;;5.32;100.00
48563;BME280;34981;49.104;11.396;2023-04-01T05:07:48;98411.41;;;5.35;100.00
48563;BME280;34981;49.104;11.396;2023-04-01T05:10:15;98410.41;;;5.36;100.00
48563;BME280;34981;49.104;11.396;2023-04-01T05:12:42;98410.41;;;5.36;100.00
48563;BME280;34981;49.104;11.396;2023-04-01T05:15:14;98409.22;;;5.39;100.00
48563;BME280;34981;49.104;11.396;2023-04-01T05:17:42;98409.69;;;5.42;100.00
48563;BME280;34981;49.104;11.396;2023-04-01T05:20:11;98408.41;;;5.38;100.00
48563;BME280;34981;49.104;11.396;2023-04-01T05:22:38;98413.19;;;5.43;100.00
48563;BME280;34981;49.104;11.396;2023-04-01T05:25:05;98416.69;;;5.43;100.00
48563;BME280;34981;49.104;11.396;2023-04-01T05:27:33;98424.53;;;5.45;100.00
48563;BME280;34981;49.104;11.396;2023-04-01T05:30:00;98414.03;;;5.43;100.00
48563;BME280;34981;49.104;11.396;2023-04-01T05:32:44;98400.34;;;5.46;100.00
48563;BME280;34981;49.104;11.396;2023-04-01T05:35:12;98410.19;;;5.46;100.00
48563;BME280;34981;49.104;11.396;2023-04-01T05:37:39;98415.34;;;5.47;100.00
48563;BME280;34981;49.104;11.396;2023-04-01T05:40:06;98410.66;;;5.49;100.00
48563;BME280;34981;49.104;11.396;2023-04-01T05:42:33;98418.31;;;5.53;100.00
48563;BME280;34981;49.104;11.396;2023-04-01T05:45:04;98414.63;;;5.54;100.00
48563;BME280;34981;49.104;11.396;2023-04-01T05:47:50;98404.25;;;5.59;100.00
48563;BME280;34981;49.104;11.396;2023-04-01T05:50:18;98415.25;;;5.56;100.00
48563;BME280;34981;49.104;11.396;2023-04-01T05:52:45;98404.25;;;5.59;100.00
48563;BME280;34981;49.104;11.396;2023-04-01T05:55:12;98412.91;;;5.61;100.00
48563;BME280;34981;49.104;11.396;2023-04-01T05:57:39;98418.25;;;5.61;100.00
48563;BME280;34981;49.104;11.396;2023-04-01T06:00:06;98428.56;;;5.64;100.00
48563;BME280;34981;49.104;11.396;2023-04-01T06:02:39;98419.09;;;5.61;100.00
48563;BME280;34981;49.104;11.396;2023-04-01T06:07:39;98425.25;;;5.62;100.00
48563;BME280;34981;49.104;11.396;2023-04-01T06:10:17;98423.22;;;5.64;100.00
48563;BME280;34981;49.104;11.396;2023-04-01T06:15:28;98428.03;;;5.68;100.00
48563;BME280;34981;49.104;11.396;2023-04-01T06:18:09;98422.88;;;5.67;100.00
48563;BME280;34981;49.104;11.396;2023-04-01T06:20:57;98421.50;;;5.71;100.00
48563;BME280;34981;49.104;11.396;2023-04-01T06:28:59;98409.59;;;5.81;100.00
48563;BME280;34981;49.104;11.396;2023-04-01T06:31:42;98423.06;;;5.88;100.00
48563;BME280;34981;49.104;11.396;2023-04-01T06:34:27;98433.19;;;5.93;100.00
48563;BME280;34981;49.104;11.396;2023-04-01T06:44:49;98436.28;;;6.04;100.00
48563;BME280;34981;49.104;11.396;2023-04-01T06:53:54;98408.63;;;6.20;100.00
48563;BME280;34981;49.104;11.396;2023-04-01T06:56:46;98415.06;;;6.25;100.00
48563;BME280;34981;49.104;11.396;2023-04-01T06:59:25;98426.41;;;6.28;100.00
48563;BME280;34981;49.104;11.396;2023-04-01T07:01:53;98438.22;;;6.48;100.00
48563;BME280;34981;49.104;11.396;2023-04-01T07:04:26;98434.88;;;6.46;100.00
48563;BME280;34981;49.104;11.396;2023-04-01T07:06:57;98417.94;;;6.39;100.00
48563;BME280;34981;49.104;11.396;2023-04-01T07:09:27;98427.25;;;6.43;100.00
48563;BME280;34981;49.104;11.396;2023-04-01T07:15:20;98405.16;;;6.63;100.00
48563;BME280;34981;49.104;11.396;2023-04-01T07:17:51;98412.50;;;6.76;100.00
48563;BME280;34981;49.104;11.396;2023-04-01T07:20:22;98418.03;;;6.75;100.00
48563;BME280;34981;49.104;11.396;2023-04-01T07:22:50;98413.44;;;6.69;100.00
48563;BME280;34981;49.104;11.396;2023-04-01T07:25:42;98392.78;;;6.62;100.00
48563;BME280;34981;49.104;11.396;2023-04-01T07:28:29;98390.56;;;6.81;100.00
48563;BME280;34981;49.104;11.396;2023-04-01T07:33:36;98424.94;;;6.98;100.00
48563;BME280;34981;49.104;11.396;2023-04-01T07:36:21;98428.84;;;7.17;100.00
48563;BME280;34981;49.104;11.396;2023-04-01T07:41:51;98457.69;;;7.94;100.00
48563;BME280;34981;49.104;11.396;2023-04-01T07:55:07;98437.25;;;8.35;100.00
48563;BME280;34981;49.104;11.396;2023-04-01T08:00:21;98419.84;;;8.46;100.00
48563;BME280;34981;49.104;11.396;2023-04-01T08:05:29;98407.91;;;8.55;100.00
48563;BME280;34981;49.104;11.396;2023-04-01T08:08:19;98432.53;;;9.06;100.00
48563;BME280;34981;49.104;11.396;2023-04-01T08:20:27;98341.88;;;8.88;100.00
48563;BME280;34981;49.104;11.396;2023-04-01T08:23:00;98345.84;;;8.99;100.00
48563;BME280;34981;49.104;11.396;2023-04-01T08:25:34;98340.28;;;9.01;100.00
48563;BME280;34981;49.104;11.396;2023-04-01T08:28:13;98334.50;;;8.97;100.00
48563;BME280;34981;49.104;11.396;2023-04-01T08:30:43;98306.94;;;8.69;100.00
48563;BME280;34981;49.104;11.396;2023-04-01T08:33:15;98290.00;;;8.62;100.00
48563;BME280;34981;49.104;11.396;2023-04-01T08:35:56;98272.25;;;8.54;100.00
48563;BME280;34981;49.104;11.396;2023-04-01T08:38:38;98258.81;;;8.47;100.00
48563;BME280;34981;49.104;11.396;2023-04-01T08:41:11;98240.31;;;8.25;100.00
48563;BME280;34981;49.104;11.396;2023-04-01T08:49:38;98231.53;;;8.37;100.00
48563;BME280;34981;49.104;11.396;2023-04-01T09:11:49;98189.19;;;8.26;100.00
48563;BME280;34981;49.104;11.396;2023-04-01T09:14:31;98150.78;;;8.06;100.00
48563;BME280;34981;49.104;11.396;2023-04-01T09:17:28;98161.31;;;8.07;100.00
48563;BME280;34981;49.104;11.396;2023-04-01T09:38:56;98162.06;;;7.88;100.00
48563;BME280;34981;49.104;11.396;2023-04-01T09:41:31;98158.13;;;7.91;100.00
48563;BME280;34981;49.104;11.396;2023-04-01T09:49:55;98160.66;;;7.99;100.00
48563;BME280;34981;49.104;11.396;2023-04-01T09:52:37;98158.19;;;8.04;100.00
48563;BME280;34981;49.104;11.396;2023-04-01T10:01:09;98167.75;;;8.26;100.00
48563;BME280;34981;49.104;11.396;2023-04-01T10:03:58;98161.66;;;8.32;100.00
48563;BME280;34981;49.104;11.396;2023-04-01T10:09:28;98166.72;;;8.27;100.00
48563;BME280;34981;49.104;11.396;2023-04-01T10:25:32;98196.38;;;8.19;100.00
48563;BME280;34981;49.104;11.396;2023-04-01T10:31:00;98200.06;;;8.11;100.00
48563;BME280;34981;49.104;11.396;2023-04-01T11:07:17;98277.63;;;7.92;100.00
48563;BME280;34981;49.104;11.396;2023-04-01T11:12:56;98282.97;;;7.92;100.00
48563;BME280;34981;49.104;11.396;2023-04-01T11:15:37;98297.00;;;7.94;100.00
48563;BME280;34981;49.104;11.396;2023-04-01T11:31:53;98351.78;;;7.91;100.00
48563;BME280;34981;49.104;11.396;2023-04-01T11:37:14;98362.44;;;7.85;100.00
48563;BME280;34981;49.104;11.396;2023-04-01T11:43:14;98335.50;;;7.65;100.00
48563;BME280;34981;49.104;11.396;2023-04-01T11:46:30;98335.22;;;7.60;100.00
48563;BME280;34981;49.104;11.396;2023-04-01T11:57:35;98381.63;;;7.46;100.00
48563;BME280;34981;49.104;11.396;2023-04-01T12:16:18;98433.31;;;7.46;100.00
48563;BME280;34981;49.104;11.396;2023-04-01T12:18:50;98414.31;;;7.41;100.00
48563;BME280;34981;49.104;11.396;2023-04-01T12:21:22;98440.50;;;7.46;100.00
48563;BME280;34981;49.104;11.396;2023-04-01T12:23:56;98435.97;;;7.46;100.00
48563;BME280;34981;49.104;11.396;2023-04-01T12:36:52;98464.69;;;7.52;100.00
48563;BME280;34981;49.104;11.396;2023-04-01T12:39:36;98453.09;;;7.45;100.00
48563;BME280;34981;49.104;11.396;2023-04-01T12:47:18;98475.69;;;7.42;100.00
48563;BME280;34981;49.104;11.396;2023-04-01T12:52:58;98480.09;;;7.50;100.00
48563;BME280;34981;49.104;11.396;2023-04-01T12:58:03;98495.75;;;7.53;100.00
48563;BME280;34981;49.104;11.396;2023-04-01T13:03:43;98466.66;;;7.43;100.00
48563;BME280;34981;49.104;11.396;2023-04-01T13:08:59;98512.22;;;7.50;100.00
48563;BME280;34981;49.104;11.396;2023-04-01T13:17:01;98505.78;;;7.45;100.00
48563;BME280;34981;49.104;11.396;2023-04-01T13:25:09;98528.03;;;7.45;100.00
48563;BME280;34981;49.104;11.396;2023-04-01T13:27:42;98525.59;;;7.50;100.00
48563;BME280;34981;49.104;11.396;2023-04-01T13:38:59;98541.09;;;7.40;100.00
48563;BME280;34981;49.104;11.396;2023-04-01T13:41:32;98539.44;;;7.39;100.00
48563;BME280;34981;49.104;11.396;2023-04-01T13:51:52;98564.66;;;7.45;100.00
48563;BME280;34981;49.104;11.396;2023-04-01T14:09:49;98572.56;;;7.53;100.00
48563;BME280;34981;49.104;11.396;2023-04-01T14:17:42;98569.34;;;7.57;100.00
48563;BME280;34981;49.104;11.396;2023-04-01T14:41:16;98598.59;;;7.73;100.00
48563;BME280;34981;49.104;11.396;2023-04-01T14:49:20;98586.84;;;7.74;100.00
48563;BME280;34981;49.104;11.396;2023-04-01T14:51:49;98598.84;;;7.78;100.00
48563;BME280;34981;49.104;11.396;2023-04-01T14:54:30;98602.91;;;7.74;100.00
48563;BME280;34981;49.104;11.396;2023-04-01T14:59:38;98601.97;;;7.82;100.00
48563;BME280;34981;49.104;11.396;2023-04-01T15:07:28;98598.78;;;7.72;100.00
48563;BME280;34981;49.104;11.396;2023-04-01T15:12:37;98592.03;;;7.61;100.00
48563;BME280;34981;49.104;11.396;2023-04-01T15:15:29;98585.31;;;7.65;100.00
48563;BME280;34981;49.104;11.396;2023-04-01T15:23:16;98598.69;;;7.65;100.00
48563;BME280;34981;49.104;11.396;2023-04-01T15:25:57;98590.84;;;7.64;100.00
48563;BME280;34981;49.104;11.396;2023-04-01T15:33:51;98603.75;;;7.60;100.00
48563;BME280;34981;49.104;11.396;2023-04-01T15:36:42;98607.47;;;7.59;100.00
48563;BME280;34981;49.104;11.396;2023-04-01T15:39:15;98600.81;;;7.55;100.00
48563;BME280;34981;49.104;11.396;2023-04-01T15:49:48;98624.63;;;7.50;100.00
48563;BME280;34981;49.104;11.396;2023-04-01T15:52:38;98628.50;;;7.48;100.00
48563;BME280;34981;49.104;11.396;2023-04-01T16:00:26;98639.19;;;7.48;100.00
48563;BME280;34981;49.104;11.396;2023-04-01T16:03:09;98633.00;;;7.47;100.00
48563;BME280;34981;49.104;11.396;2023-04-01T16:08:40;98626.00;;;7.46;100.00
48563;BME280;34981;49.104;11.396;2023-04-01T16:11:14;98621.88;;;7.43;100.00
48563;BME280;34981;49.104;11.396;2023-04-01T16:13:53;98634.41;;;7.43;100.00
48563;BME280;34981;49.104;11.396;2023-04-01T16:21:38;98645.19;;;7.35;100.00
48563;BME280;34981;49.104;11.396;2023-04-01T16:29:24;98648.22;;;7.32;100.00
48563;BME280;34981;49.104;11.396;2023-04-01T16:34:41;98635.41;;;7.27;100.00
48563;BME280;34981;49.104;11.396;2023-04-01T16:37:11;98650.34;;;7.22;100.00
48563;BME280;34981;49.104;11.396;2023-04-01T16:44:58;98637.06;;;7.14;100.00
48563;BME280;34981;49.104;11.396;2023-04-01T16:47:31;98639.41;;;7.09;100.00
48563;BME280;34981;49.104;11.396;2023-04-01T16:50:05;98633.63;;;7.05;100.00
48563;BME280;34981;49.104;11.396;2023-04-01T16:52:42;98638.97;;;7.05;100.00
48563;BME280;34981;49.104;11.396;2023-04-01T16:55:17;98640.38;;;7.01;100.00
48563;BME280;34981;49.104;11.396;2023-04-01T16:57:51;98643.38;;;6.98;100.00
48563;BME280;34981;49.104;11.396;2023-04-01T17:10:56;98638.22;;;6.96;100.00
48563;BME280;34981;49.104;11.396;2023-04-01T17:13:30;98640.06;;;6.96;100.00
48563;BME280;34981;49.104;11.396;2023-04-01T17:24:37;98628.25;;;6.90;100.00
48563;BME280;34981;49.104;11.396;2023-04-01T17:27:18;98630.56;;;6.93;100.00
48563;BME280;34981;49.104;11.396;2023-04-01T17:32:46;98624.28;;;6.86;100.00
48563;BME280;34981;49.104;11.396;2023-04-01T17:38:04;98644.63;;;6.87;100.00
48563;BME280;34981;49.104;11.396;2023-04-01T17:40:35;98622.78;;;6.84;100.00
48563;BME280;34981;49.104;11.396;2023-04-01T17:45:55;98630.31;;;6.80;100.00
48563;BME280;34981;49.104;11.396;2023-04-01T17:53:39;98650.06;;;6.79;100.00
48563;BME280;34981;49.104;11.396;2023-04-01T17:56:17;98636.06;;;6.77;100.00
48563;BME280;34981;49.104;11.396;2023-04-01T17:58:46;98648.03;;;6.81;100.00
48563;BME280;34981;49.104;11.396;2023-04-01T18:04:01;98645.06;;;6.76;100.00
48563;BME280;34981;49.104;11.396;2023-04-01T18:14:41;98651.59;;;6.74;100.00
48563;BME280;34981;49.104;11.396;2023-04-01T18:17:17;98644.06;;;6.77;100.00
48563;BME280;34981;49.104;11.396;2023-04-01T18:22:57;98645.41;;;6.73;100.00
48563;BME280;34981;49.104;11.396;2023-04-01T18:30:41;98663.50;;;6.71;100.00
48563;BME280;34981;49.104;11.396;2023-04-01T18:33:28;98682.84;;;6.73;100.00
48563;BME280;34981;49.104;11.396;2023-04-01T18:36:13;98662.47;;;6.72;100.00
48563;BME280;34981;49.104;11.396;2023-04-01T18:38:47;98665.97;;;6.73;100.00
48563;BME280;34981;49.104;11.396;2023-04-01T18:41:20;98671.53;;;6.71;100.00
48563;BME280;34981;49.104;11.396;2023-04-01T18:46:30;98697.22;;;6.72;100.00
48563;BME280;34981;49.104;11.396;2023-04-01T18:49:05;98686.72;;;6.71;100.00
48563;BME280;34981;49.104;11.396;2023-04-01T18:54:19;98692.41;;;6.68;100.00
48563;BME280;34981;49.104;11.396;2023-04-01T18:56:50;98693.91;;;6.70;100.00
48563;BME280;34981;49.104;11.396;2023-04-01T18:59:20;98693.41;;;6.67;100.00
48563;BME280;34981;49.104;11.396;2023-04-01T19:07:41;98697.09;;;6.65;100.00
48563;BME280;34981;49.104;11.396;2023-04-01T19:12:51;98706.97;;;6.65;100.00
48563;BME280;34981;49.104;11.396;2023-04-01T19:16:09;98705.31;;;6.64;100.00
48563;BME280;34981;49.104;11.396;2023-04-01T19:20:44;98711.69;;;6.63;100.00
48563;BME280;34981;49.104;11.396;2023-04-01T19:26:30;98684.94;;;6.63;100.00
48563;BME280;34981;49.104;11.396;2023-04-01T19:29:06;98709.00;;;6.63;100.00
48563;BME280;34981;49.104;11.396;2023-04-01T19:45:02;98711.84;;;6.61;100.00
48563;BME280;34981;49.104;11.396;2023-04-01T19:47:39;98705.50;;;6.62;100.00
48563;BME280;34981;49.104;11.396;2023-04-01T19:52:49;98712.00;;;6.60;100.00
48563;BME280;34981;49.104;11.396;2023-04-01T20:00:29;98712.00;;;6.60;100.00
48563;BME280;34981;49.104;11.396;2023-04-01T20:03:00;98712.19;;;6.58;100.00
48563;BME280;34981;49.104;11.396;2023-04-01T20:05:35;98716.69;;;6.58;100.00
48563;BME280;34981;49.104;11.396;2023-04-01T20:10:37;98724.06;;;6.56;100.00
48563;BME280;34981;49.104;11.396;2023-04-01T20:16:14;98720.25;;;6.50;100.00
48563;BME280;34981;49.104;11.396;2023-04-01T20:18:58;98721.91;;;6.51;100.00
48563;BME280;34981;49.104;11.396;2023-04-01T20:23:59;98728.09;;;6.52;100.00
48563;BME280;34981;49.104;11.396;2023-04-01T20:26:29;98725.59;;;6.50;100.00
48563;BME280;34981;49.104;11.396;2023-04-01T20:31:25;98737.13;;;6.51;100.00
48563;BME280;34981;49.104;11.396;2023-04-01T20:38:58;98721.06;;;6.51;100.00
48563;BME280;34981;49.104;11.396;2023-04-01T20:41:33;98730.94;;;6.50;100.00
48563;BME280;34981;49.104;11.396;2023-04-01T20:44:10;98732.59;;;6.51;100.00
48563;BME280;34981;49.104;11.396;2023-04-01T20:49:50;98708.09;;;6.48;100.00
48563;BME280;34981;49.104;11.396;2023-04-01T20:52:24;98738.16;;;6.50;100.00
48563;BME280;34981;49.104;11.396;2023-04-01T20:55:02;98744.84;;;6.46;100.00
48563;BME280;34981;49.104;11.396;2023-04-01T20:57:43;98738.50;;;6.47;100.00
48563;BME280;34981;49.104;11.396;2023-04-01T21:00:18;98753.69;;;6.46;100.00
48563;BME280;34981;49.104;11.396;2023-04-01T21:08:12;98741.88;;;6.41;100.00
48563;BME280;34981;49.104;11.396;2023-04-01T21:32:00;98747.91;;;6.35;100.00
48563;BME280;34981;49.104;11.396;2023-04-01T21:40:00;98746.56;;;6.31;100.00
48563;BME280;34981;49.104;11.396;2023-04-01T21:45:24;98758.94;;;6.32;100.00
48563;BME280;34981;49.104;11.396;2023-04-01T21:50:46;98765.28;;;6.31;100.00
48563;BME280;34981;49.104;11.396;2023-04-01T22:00:38;98792.16;;;6.29;100.00
48563;BME280;34981;49.104;11.396;2023-04-01T22:05:59;98778.63;;;6.31;100.00
48563;BME280;34981;49.104;11.396;2023-04-01T22:13:46;98798.34;;;6.30;100.00
48563;BME280;34981;49.104;11.396;2023-04-01T22:21:52;98779.97;;;6.35;100.00
48563;BME280;34981;49.104;11.396;2023-04-01T22:24:40;98795.50;;;6.31;100.00
48563;BME280;34981;49.104;11.396;2023-04-01T22:29:42;98812.38;;;6.32;100.00
48563;BME280;34981;49.104;11.396;2023-04-01T22:32:16;98808.84;;;6.31;100.00
48563;BME280;34981;49.104;11.396;2023-04-01T22:35:05;98816.03;;;6.31;100.00
48563;BME280;34981;49.104;11.396;2023-04-01T22:40:25;98811.69;;;6.30;100.00
48563;BME280;34981;49.104;11.396;2023-04-01T22:42:59;98816.03;;;6.31;100.00